Time;durP1;ratioP1;P1;durP2;ratioP2;P2;SDS_P1;SDS_P2;PMS_P1;PMS_P2;Temp;Humidity;BMP_temperature;BMP_pressure;BME280_temperature;BME280_humidity;BME280_pressure;Samples;Min_cycle;Max_cycle;Signal;HPM_P1;HPM_P2
2022/03/15 00:00:16;;;;;;;22.85;13.65;;;8.50;99.90;;;;;;5029216;28;20048;-61
2022/03/15 00:03:22;;;;;;;21.08;14.40;;;8.60;99.90;;;;;;5030215;28;20056;-61
2022/03/15 00:06:26;;;;;;;19.85;13.38;;;8.60;99.90;;;;;;5030254;28;20052;-61
2022/03/15 00:09:30;;;;;;;18.27;12.82;;;8.60;99.90;;;;;;5030234;28;20068;-60
2022/03/15 00:12:35;;;;;;;26.23;13.45;;;8.50;99.90;;;;;;5029519;28;20049;-61
2022/03/15 00:15:41;;;;;;;20.77;12.90;;;8.50;99.90;;;;;;5029979;28;20048;-61
2022/03/15 00:18:46;;;;;;;20.33;12.50;;;8.50;99.90;;;;;;5029920;28;20150;-61
2022/03/15 00:21:50;;;;;;;22.92;12.98;;;8.50;99.90;;;;;;5029873;28;20495;-61
2022/03/15 00:24:55;;;;;;;22.77;12.23;;;8.50;99.90;;;;;;5030426;28;20052;-61
2022/03/15 00:27:59;;;;;;;17.70;12.30;;;8.50;99.90;;;;;;5030194;28;20044;-61
2022/03/15 00:31:04;;;;;;;21.83;13.45;;;8.50;99.90;;;;;;5029489;28;20078;-61
2022/03/15 00:34:08;;;;;;;19.13;12.82;;;8.50;99.90;;;;;;5030203;28;20040;-61
2022/03/15 00:37:13;;;;;;;25.17;14.90;;;8.50;99.90;;;;;;5029022;28;20044;-61
2022/03/15 00:40:19;;;;;;;23.15;13.40;;;8.50;99.90;;;;;;5029684;28;20049;-61
2022/03/15 00:43:24;;;;;;;23.23;14.15;;;8.40;99.90;;;;;;5029856;28;20052;-61
2022/03/15 00:46:28;;;;;;;24.15;13.90;;;8.30;99.90;;;;;;5029771;28;20060;-61
2022/03/15 00:49:32;;;;;;;20.75;13.82;;;8.30;99.90;;;;;;5028805;28;20427;-61
2022/03/15 00:52:36;;;;;;;24.10;13.73;;;8.20;99.90;;;;;;5029161;28;20521;-61
2022/03/15 00:55:41;;;;;;;23.38;11.20;;;8.10;99.90;;;;;;5029635;28;20392;-61
2022/03/15 00:58:45;;;;;;;23.90;10.93;;;8.10;99.90;;;;;;5029684;28;20032;-61
2022/03/15 01:01:49;;;;;;;34.28;15.48;;;8.00;99.90;;;;;;5029091;28;20041;-61
2022/03/15 01:04:53;;;;;;;28.75;14.13;;;7.90;99.90;;;;;;5029778;28;20048;-62
2022/03/15 01:07:58;;;;;;;17.48;10.70;;;7.90;99.90;;;;;;5029688;28;20511;-61
2022/03/15 01:11:02;;;;;;;21.45;12.10;;;7.90;99.90;;;;;;5030139;28;20404;-61
2022/03/15 01:14:06;;;;;;;20.65;11.80;;;7.70;99.90;;;;;;5032630;28;20392;-60
2022/03/15 01:17:10;;;;;;;21.17;11.02;;;7.70;99.90;;;;;;5033295;28;20064;-61
2022/03/15 01:20:14;;;;;;;20.13;11.40;;;7.80;99.90;;;;;;5033159;28;20511;-60
2022/03/15 01:23:19;;;;;;;16.48;10.38;;;7.70;99.90;;;;;;5033356;28;20048;-61
2022/03/15 01:26:24;;;;;;;15.75;9.15;;;7.60;99.90;;;;;;5033363;28;20048;-61
2022/03/15 01:29:30;;;;;;;13.40;8.85;;;7.60;99.90;;;;;;5032187;28;20053;-62
2022/03/15 01:32:36;;;;;;;17.70;10.43;;;7.50;99.90;;;;;;5032600;28;20570;-60
2022/03/15 01:35:40;;;;;;;14.77;9.85;;;7.40;99.90;;;;;;5032341;28;20044;-61
2022/03/15 01:38:44;;;;;;;15.88;10.07;;;7.50;99.90;;;;;;5032788;28;20040;-60
2022/03/15 01:41:48;;;;;;;15.32;10.43;;;7.40;99.90;;;;;;5032723;28;20400;-61
2022/03/15 01:44:52;;;;;;;17.25;10.90;;;7.40;99.90;;;;;;5032432;28;20503;-60
2022/03/15 01:47:56;;;;;;;17.17;10.70;;;7.30;99.90;;;;;;5033289;28;20048;-61
2022/03/15 01:51:02;;;;;;;17.17;10.15;;;7.30;99.90;;;;;;5032031;28;20080;-61
2022/03/15 01:54:11;;;;;;;17.38;10.05;;;7.30;99.90;;;;;;5032796;28;20052;-60
2022/03/15 01:57:16;;;;;;;16.52;10.18;;;7.30;99.90;;;;;;5032312;28;20044;-61
2022/03/15 02:00:20;;;;;;;22.05;11.57;;;7.20;99.90;;;;;;5031420;28;20045;-61
2022/03/15 02:03:31;;;;;;;18.98;11.02;;;6.90;99.90;;;;;;5032398;28;20052;-61
2022/03/15 02:06:41;;;;;;;17.63;10.65;;;6.70;99.90;;;;;;5032483;28;20048;-61
2022/03/15 02:09:47;;;;;;;17.35;10.90;;;6.60;99.90;;;;;;5031853;28;20057;-61
2022/03/15 02:12:51;;;;;;;18.48;11.15;;;6.50;99.90;;;;;;5031543;28;20056;-60
2022/03/15 02:15:55;;;;;;;18.75;10.98;;;6.40;99.90;;;;;;5032196;28;20500;-61
2022/03/15 02:19:00;;;;;;;21.20;12.18;;;6.40;99.90;;;;;;5031576;28;20408;-60
2022/03/15 02:22:05;;;;;;;18.35;11.40;;;6.40;99.90;;;;;;5030899;28;20053;-61
2022/03/15 02:25:09;;;;;;;19.45;10.98;;;6.30;99.90;;;;;;5031844;28;20072;-61
2022/03/15 02:28:13;;;;;;;17.75;11.05;;;6.40;99.90;;;;;;5032059;28;20056;-61
2022/03/15 02:31:19;;;;;;;19.48;12.68;;;6.40;99.90;;;;;;5031356;28;20056;-61
2022/03/15 02:34:25;;;;;;;19.05;11.43;;;6.30;99.90;;;;;;5031793;28;20040;-60
2022/03/15 02:37:30;;;;;;;19.63;12.18;;;6.30;99.90;;;;;;5032089;28;20061;-61
2022/03/15 02:40:34;;;;;;;21.52;12.05;;;6.20;99.90;;;;;;5030944;28;20048;-61
2022/03/15 02:43:39;;;;;;;21.73;12.40;;;6.40;99.90;;;;;;5031866;28;20048;-61
2022/03/15 02:46:48;;;;;;;17.27;11.30;;;6.40;99.90;;;;;;5031280;28;20040;-61
2022/03/15 02:49:53;;;;;;;19.38;12.38;;;6.60;99.90;;;;;;5031193;28;20056;-61
2022/03/15 02:52:58;;;;;;;20.23;12.13;;;6.60;99.90;;;;;;5031524;28;20049;-60
2022/03/15 02:56:02;;;;;;;23.00;11.80;;;6.70;99.90;;;;;;5031676;28;20051;-61
2022/03/15 02:59:08;;;;;;;20.77;12.70;;;6.70;99.90;;;;;;5030324;28;20052;-61
2022/03/15 03:02:13;;;;;;;27.98;15.68;;;6.60;99.90;;;;;;5031009;28;20040;-61
2022/03/15 03:05:17;;;;;;;25.88;14.50;;;6.60;99.90;;;;;;5031473;28;20072;-60
2022/03/15 03:08:27;;;;;;;43.95;22.75;;;6.60;99.90;;;;;;5031477;28;20049;-60
2022/03/15 03:11:35;;;;;;;29.75;15.65;;;6.60;99.90;;;;;;5030625;28;20396;-60
2022/03/15 03:14:40;;;;;;;25.55;14.02;;;6.60;99.90;;;;;;5031171;28;20060;-60
2022/03/15 03:17:44;;;;;;;21.45;13.27;;;6.50;99.90;;;;;;5031035;28;20052;-60
2022/03/15 03:20:48;;;;;;;24.67;13.40;;;6.50;99.90;;;;;;5030176;28;20045;-60
2022/03/15 03:23:53;;;;;;;24.50;12.75;;;6.50;99.90;;;;;;5031433;28;20404;-60
2022/03/15 03:27:00;;;;;;;23.80;12.90;;;6.50;99.90;;;;;;5030906;28;20052;-61
2022/03/15 03:30:05;;;;;;;24.33;13.55;;;6.40;99.90;;;;;;5030757;28;20044;-60
2022/03/15 03:33:09;;;;;;;31.33;17.45;;;6.50;99.90;;;;;;5030405;28;20048;-61
2022/03/15 03:36:13;;;;;;;23.00;13.60;;;6.40;99.90;;;;;;5030642;28;20060;-60
2022/03/15 03:39:17;;;;;;;20.52;11.25;;;6.40;99.90;;;;;;5030584;28;20041;-60
2022/03/15 03:42:21;;;;;;;13.90;10.38;;;6.40;99.90;;;;;;5030117;28;20052;-60
2022/03/15 03:45:25;;;;;;;19.27;10.95;;;6.40;99.90;;;;;;5029602;28;20231;-61
2022/03/15 03:48:29;;;;;;;21.63;13.18;;;6.40;99.90;;;;;;5030475;28;20075;-60
2022/03/15 03:51:34;;;;;;;22.85;12.35;;;6.40;99.90;;;;;;5029576;28;20396;-60
2022/03/15 03:54:39;;;;;;;26.10;14.18;;;6.30;99.90;;;;;;5030453;28;20064;-60
2022/03/15 03:57:42;;;;;;;16.60;11.10;;;6.30;99.90;;;;;;5030101;28;20045;-60
2022/03/15 04:00:46;;;;;;;18.92;11.48;;;6.20;99.90;;;;;;5029757;28;20056;-60
2022/03/15 04:03:50;;;;;;;19.23;11.07;;;6.30;99.90;;;;;;5029550;28;20052;-60
2022/03/15 04:06:55;;;;;;;21.70;11.90;;;6.20;99.90;;;;;;5030385;28;20056;-60
2022/03/15 04:09:59;;;;;;;18.70;12.55;;;6.20;99.90;;;;;;5029897;28;20044;-60
2022/03/15 04:13:04;;;;;;;23.17;13.23;;;6.30;99.90;;;;;;5029969;28;20129;-60
2022/03/15 04:16:08;;;;;;;18.98;11.40;;;6.30;99.90;;;;;;5030030;28;20534;-60
2022/03/15 04:19:15;;;;;;;20.48;12.77;;;6.30;99.90;;;;;;5029800;28;20036;-60
2022/03/15 04:22:19;;;;;;;21.60;13.20;;;6.40;99.90;;;;;;5029380;28;20503;-60
2022/03/15 04:25:24;;;;;;;20.95;13.25;;;6.50;99.90;;;;;;5030294;28;20052;-61
2022/03/15 04:28:28;;;;;;;20.08;12.73;;;6.20;99.90;;;;;;5029707;28;20495;-61
2022/03/15 04:31:32;;;;;;;28.40;15.30;;;5.80;99.90;;;;;;5029460;28;20048;-60
2022/03/15 04:34:36;;;;;;;23.05;13.25;;;5.80;99.90;;;;;;5030008;28;20436;-60
2022/03/15 04:37:42;;;;;;;32.00;16.67;;;5.80;99.90;;;;;;5030005;28;20037;-60
2022/03/15 04:40:47;;;;;;;22.83;14.15;;;5.80;99.90;;;;;;5029457;28;20043;-60
2022/03/15 04:43:50;;;;;;;25.88;14.88;;;5.70;99.90;;;;;;5029656;28;20052;-60
2022/03/15 04:46:54;;;;;;;27.70;14.07;;;5.70;99.90;;;;;;5033606;28;20064;-60
2022/03/15 04:49:59;;;;;;;22.23;13.75;;;5.80;99.90;;;;;;5033924;28;20044;-60
2022/03/15 04:53:03;;;;;;;25.60;14.45;;;5.80;99.90;;;;;;5033828;28;20052;-60
2022/03/15 04:56:07;;;;;;;24.15;14.07;;;5.80;99.90;;;;;;5034078;28;20663;-60
2022/03/15 04:59:11;;;;;;;25.60;14.77;;;5.90;99.90;;;;;;5033594;28;20044;-60
2022/03/15 05:02:15;;;;;;;23.35;13.18;;;5.90;99.90;;;;;;5033222;28;20052;-60
2022/03/15 05:05:20;;;;;;;19.73;11.40;;;5.90;99.90;;;;;;5033567;28;20404;-60
2022/03/15 05:08:24;;;;;;;23.48;13.15;;;6.10;99.90;;;;;;5033334;28;20045;-61
2022/03/15 05:11:29;;;;;;;22.42;12.25;;;6.30;99.90;;;;;;5032795;28;20392;-60
2022/03/15 05:14:33;;;;;;;20.25;11.52;;;6.20;99.90;;;;;;5033521;28;20048;-60
2022/03/15 05:17:37;;;;;;;21.10;11.48;;;6.20;99.90;;;;;;5033418;28;20039;-60
2022/03/15 05:20:40;;;;;;;23.50;14.35;;;6.20;99.90;;;;;;5032847;28;20045;-60
2022/03/15 05:23:45;;;;;;;19.77;12.90;;;6.20;99.90;;;;;;5033146;28;20052;-60
2022/03/15 05:26:49;;;;;;;19.42;12.02;;;6.20;99.90;;;;;;5033046;28;20125;-61
2022/03/15 05:29:53;;;;;;;21.05;12.27;;;6.30;99.90;;;;;;5033273;28;20492;-60
2022/03/15 05:32:57;;;;;;;18.20;11.48;;;6.30;99.90;;;;;;5031332;28;20503;-60
2022/03/15 05:36:02;;;;;;;19.13;11.88;;;6.40;99.90;;;;;;5033126;28;20040;-61
2022/03/15 05:39:05;;;;;;;17.73;10.68;;;6.40;99.90;;;;;;5032879;28;20052;-60
2022/03/15 05:42:12;;;;;;;19.98;11.90;;;6.50;99.90;;;;;;5032221;28;20502;-60
2022/03/15 05:45:17;;;;;;;16.13;10.18;;;6.60;99.90;;;;;;5033025;28;20451;-60
2022/03/15 05:48:21;;;;;;;21.90;12.73;;;6.80;99.90;;;;;;5033027;28;20048;-61
2022/03/15 05:51:26;;;;;;;22.42;15.38;;;7.00;99.90;;;;;;5031997;28;20052;-60
2022/03/15 05:54:30;;;;;;;25.45;12.70;;;7.20;99.90;;;;;;5032980;28;20064;-60
2022/03/15 05:57:34;;;;;;;23.05;11.65;;;7.40;99.90;;;;;;5032625;28;20040;-61
2022/03/15 06:00:39;;;;;;;20.35;11.77;;;7.50;99.90;;;;;;5032254;28;20388;-61
2022/03/15 06:03:43;;;;;;;21.23;11.95;;;7.50;99.90;;;;;;5032864;28;20052;-61
2022/03/15 06:06:47;;;;;;;24.00;12.68;;;7.50;99.90;;;;;;5032500;28;20049;-60
2022/03/15 06:09:52;;;;;;;21.63;13.80;;;7.50;99.90;;;;;;5032732;28;20052;-61
2022/03/15 06:12:57;;;;;;;22.08;14.43;;;7.50;99.90;;;;;;5031645;28;20396;-61
2022/03/15 06:16:01;;;;;;;21.40;12.73;;;7.60;99.90;;;;;;5032028;28;20227;-61
2022/03/15 06:19:05;;;;;;;22.05;12.85;;;8.10;99.90;;;;;;5032975;28;20052;-61
2022/03/15 06:22:09;;;;;;;21.70;13.10;;;8.60;99.90;;;;;;5032196;28;20040;-60
2022/03/15 06:25:14;;;;;;;21.08;11.73;;;8.90;99.90;;;;;;5033126;28;20523;-61
2022/03/15 06:28:18;;;;;;;19.08;11.93;;;8.90;99.90;;;;;;5033448;28;20064;-60
2022/03/15 06:31:22;;;;;;;15.88;11.13;;;8.90;99.90;;;;;;5032357;28;20052;-60
2022/03/15 06:34:26;;;;;;;18.65;12.05;;;8.90;99.90;;;;;;5032383;28;20053;-61
2022/03/15 06:37:30;;;;;;;18.65;11.75;;;8.70;99.90;;;;;;5031747;28;20045;-61
2022/03/15 06:40:35;;;;;;;24.02;12.23;;;8.70;99.90;;;;;;5031073;28;20045;-61
2022/03/15 06:43:40;;;;;;;20.38;12.40;;;8.80;99.90;;;;;;5032298;28;20060;-62
2022/03/15 06:46:44;;;;;;;19.00;12.88;;;8.90;99.90;;;;;;5033266;28;20060;-62
2022/03/15 06:49:49;;;;;;;19.85;10.27;;;8.90;99.90;;;;;;5033026;28;20052;-62
2022/03/15 06:52:55;;;;;;;18.77;11.15;;;9.00;99.90;;;;;;5031529;28;20507;-61
2022/03/15 06:55:59;;;;;;;13.73;8.98;;;9.00;99.90;;;;;;5031555;28;20388;-62
2022/03/15 06:59:02;;;;;;;16.75;10.45;;;9.00;99.90;;;;;;5031522;28;20503;-62
2022/03/15 07:02:06;;;;;;;17.00;9.43;;;9.10;99.90;;;;;;5023422;28;20404;-62
2022/03/15 07:05:11;;;;;;;28.30;11.07;;;9.10;99.90;;;;;;5028020;28;20052;-62
2022/03/15 07:08:14;;;;;;;21.88;11.30;;;9.00;99.90;;;;;;5027534;28;20056;-62
2022/03/15 07:11:18;;;;;;;25.15;11.20;;;9.00;99.90;;;;;;5026301;28;20170;-62
2022/03/15 07:14:23;;;;;;;17.05;10.85;;;9.00;99.90;;;;;;5029262;28;20649;-61
2022/03/15 07:17:29;;;;;;;17.55;11.00;;;8.90;99.90;;;;;;5029521;28;20056;-61
2022/03/15 07:20:34;;;;;;;18.35;11.50;;;8.70;99.90;;;;;;5028785;28;20049;-60
2022/03/15 07:23:38;;;;;;;29.92;15.57;;;8.80;99.90;;;;;;5025976;28;20036;-60
2022/03/15 07:26:42;;;;;;;56.85;29.00;;;8.70;99.90;;;;;;5028512;28;20048;-60
2022/03/15 07:29:46;;;;;;;27.80;15.32;;;8.80;99.90;;;;;;5028238;28;20044;-60
2022/03/15 07:32:50;;;;;;;19.20;10.80;;;8.80;99.90;;;;;;5026292;28;20045;-61
2022/03/15 07:35:54;;;;;;;18.02;11.82;;;8.70;99.90;;;;;;5027835;28;20578;-61
2022/03/15 07:38:58;;;;;;;30.25;16.73;;;8.80;99.90;;;;;;5025044;28;20392;-61
2022/03/15 07:42:02;;;;;;;17.92;11.70;;;8.60;99.90;;;;;;5027025;28;20041;-61
2022/03/15 07:45:11;;;;;;;19.25;11.93;;;8.10;99.90;;;;;;5024697;28;20503;-61
2022/03/15 07:48:15;;;;;;;21.52;12.98;;;7.90;99.90;;;;;;5023630;28;20048;-61
2022/03/15 07:51:19;;;;;;;23.13;13.18;;;7.90;99.90;;;;;;5026502;28;20494;-62
2022/03/15 07:54:23;;;;;;;20.67;12.85;;;7.90;99.90;;;;;;5028920;28;20056;-61
2022/03/15 07:57:27;;;;;;;20.40;13.43;;;8.10;99.90;;;;;;5027507;28;20052;-61
2022/03/15 08:00:32;;;;;;;21.67;12.52;;;8.30;99.90;;;;;;5024315;28;20385;-61
2022/03/15 08:03:36;;;;;;;21.02;13.00;;;8.60;99.90;;;;;;5027616;28;20405;-61
2022/03/15 08:06:40;;;;;;;21.83;13.55;;;9.00;99.90;;;;;;5028690;28;20044;-61
2022/03/15 08:09:44;;;;;;;23.35;14.02;;;9.00;99.90;;;;;;5023208;28;20044;-61
2022/03/15 08:12:50;;;;;;;22.85;13.55;;;8.90;99.90;;;;;;5020129;28;20554;-60
2022/03/15 08:15:55;;;;;;;20.50;13.30;;;8.90;99.90;;;;;;5028085;28;20052;-60
2022/03/15 08:18:59;;;;;;;20.77;12.55;;;8.90;99.90;;;;;;5028348;28;20045;-60
2022/03/15 08:22:05;;;;;;;21.15;13.70;;;8.70;99.90;;;;;;5026261;28;20040;-61
2022/03/15 08:25:09;;;;;;;40.67;13.80;;;8.40;99.90;;;;;;5023121;28;20044;-61
2022/03/15 08:28:13;;;;;;;21.05;13.95;;;8.30;99.90;;;;;;5025579;28;20057;-61
2022/03/15 08:31:17;;;;;;;25.55;13.57;;;8.00;99.90;;;;;;5025931;28;20053;-61
2022/03/15 08:34:21;;;;;;;22.08;13.65;;;8.30;99.90;;;;;;5026337;28;20037;-61
2022/03/15 08:37:25;;;;;;;24.38;15.05;;;8.40;99.90;;;;;;5027883;28;20049;-61
2022/03/15 08:40:29;;;;;;;27.27;14.48;;;8.60;99.90;;;;;;5024594;28;20068;-61
2022/03/15 08:43:39;;;;;;;19.27;13.77;;;9.10;99.90;;;;;;5023571;28;20139;-61
2022/03/15 08:46:44;;;;;;;19.88;12.90;;;9.70;99.90;;;;;;5024076;28;20064;-61
2022/03/15 08:49:48;;;;;;;22.10;13.80;;;9.60;99.90;;;;;;5018277;28;20040;-61
2022/03/15 08:52:55;;;;;;;25.05;14.07;;;9.80;99.90;;;;;;5028239;28;20036;-61
2022/03/15 08:55:59;;;;;;;24.30;14.70;;;9.90;99.90;;;;;;5025622;28;20040;-62
2022/03/15 08:59:03;;;;;;;22.02;13.32;;;10.20;99.90;;;;;;5029539;28;20045;-61
2022/03/15 09:02:09;;;;;;;21.55;13.40;;;10.40;99.90;;;;;;5023493;28;20044;-62
2022/03/15 09:05:16;;;;;;;25.75;13.90;;;10.70;99.90;;;;;;5010441;28;20052;-61
2022/03/15 09:08:20;;;;;;;22.25;13.70;;;11.00;99.90;;;;;;5025774;28;20952;-61
2022/03/15 09:11:24;;;;;;;23.02;13.38;;;11.20;99.90;;;;;;5027589;28;20392;-62
2022/03/15 09:14:28;;;;;;;21.42;13.02;;;11.40;99.90;;;;;;5020283;28;20519;-61
2022/03/15 09:17:34;;;;;;;20.20;12.70;;;11.60;99.90;;;;;;5028296;28;20060;-62
2022/03/15 09:20:39;;;;;;;18.95;11.95;;;11.90;99.90;;;;;;5025414;28;20508;-61
2022/03/15 09:23:44;;;;;;;17.65;11.55;;;12.20;99.90;;;;;;5022252;28;20040;-61
2022/03/15 09:26:48;;;;;;;19.90;12.18;;;12.70;99.90;;;;;;5024146;28;20044;-61
2022/03/15 09:29:54;;;;;;;17.90;10.50;;;13.20;99.90;;;;;;5025108;28;20044;-61
2022/03/15 09:32:58;;;;;;;17.38;11.20;;;13.60;99.90;;;;;;5027052;28;20045;-61
2022/03/15 09:36:04;;;;;;;20.10;11.63;;;14.30;99.20;;;;;;5030952;28;20060;-62
2022/03/15 09:39:09;;;;;;;16.27;11.32;;;14.80;98.00;;;;;;5028721;28;20048;-62
2022/03/15 09:42:18;;;;;;;18.40;11.15;;;15.50;96.90;;;;;;5029492;28;20048;-61
2022/03/15 09:45:23;;;;;;;19.85;10.57;;;16.60;95.40;;;;;;5025891;28;20045;-62
2022/03/15 09:48:27;;;;;;;16.30;9.50;;;18.20;93.60;;;;;;5029641;28;20036;-61
2022/03/15 09:51:32;;;;;;;15.23;9.20;;;20.00;90.80;;;;;;5026144;28;20032;-62
2022/03/15 09:54:37;;;;;;;16.60;9.57;;;22.20;84.80;;;;;;5028916;28;20389;-62
2022/03/15 09:57:41;;;;;;;15.93;9.55;;;24.30;76.60;;;;;;5027102;28;20044;-62
2022/03/15 10:00:50;;;;;;;13.95;8.45;;;26.10;71.80;;;;;;5030698;28;20048;-63
2022/03/15 10:03:55;;;;;;;14.63;7.88;;;27.60;66.80;;;;;;5026139;28;20048;-60
2022/03/15 10:07:00;;;;;;;14.40;8.40;;;28.80;63.80;;;;;;5023833;28;20508;-61
2022/03/15 10:10:06;;;;;;;17.67;8.15;;;29.00;61.70;;;;;;5027281;28;20048;-61
2022/03/15 10:13:11;;;;;;;9.50;7.20;;;29.40;59.00;;;;;;5026584;28;20060;-61
2022/03/15 10:16:15;;;;;;;11.98;8.75;;;30.30;58.80;;;;;;5029805;28;20060;-61
2022/03/15 10:19:19;;;;;;;12.32;8.68;;;28.80;56.90;;;;;;5028663;28;20500;-61
2022/03/15 10:22:26;;;;;;;12.63;9.25;;;23.90;60.00;;;;;;5024956;28;20060;-60
2022/03/15 10:25:31;;;;;;;13.60;8.32;;;23.80;63.00;;;;;;5029068;28;20413;-63
2022/03/15 10:28:36;;;;;;;12.38;8.40;;;25.60;60.10;;;;;;5023683;28;20052;-60
2022/03/15 10:31:42;;;;;;;11.73;8.32;;;24.80;60.20;;;;;;5024899;28;20052;-61
2022/03/15 10:34:46;;;;;;;10.07;7.93;;;27.70;59.60;;;;;;5028044;28;20045;-61
2022/03/15 10:37:52;;;;;;;16.38;7.90;;;28.80;57.30;;;;;;5027512;28;20044;-61
2022/03/15 10:40:56;;;;;;;12.52;7.60;;;27.00;58.90;;;;;;5030220;28;20032;-61
2022/03/15 10:44:01;;;;;;;12.52;7.30;;;26.40;59.20;;;;;;5026394;28;20116;-60
2022/03/15 10:47:14;;;;;;;16.58;8.55;;;25.80;59.90;;;;;;5022920;28;20514;-61
2022/03/15 10:50:19;;;;;;;12.15;8.18;;;26.60;58.30;;;;;;5029840;28;20044;-60
2022/03/15 10:53:41;;;;;;;12.63;8.18;;;25.10;58.50;;;;;;5025612;28;20060;-61
2022/03/15 10:56:59;;;;;;;12.18;7.75;;;26.80;59.00;;;;;;5025396;28;20040;-62
2022/03/15 11:00:07;;;;;;;11.60;8.73;;;24.60;58.60;;;;;;5024556;28;20044;-63
2022/03/15 11:03:20;;;;;;;17.08;8.75;;;24.50;58.30;;;;;;5024701;28;20515;-62
2022/03/15 11:06:37;;;;;;;15.55;8.00;;;25.60;57.60;;;;;;5026710;28;20507;-62
2022/03/15 11:09:41;;;;;;;13.35;8.73;;;25.70;59.20;;;;;;5029608;28;20048;-62
2022/03/15 11:12:58;;;;;;;18.95;8.57;;;25.20;57.30;;;;;;5023337;28;20044;-63
2022/03/15 11:16:05;;;;;;;15.23;8.32;;;27.30;55.70;;;;;;5025674;28;20056;-63
2022/03/15 11:19:12;;;;;;;14.25;8.50;;;24.40;56.90;;;;;;5026513;28;20045;-63
2022/03/15 11:22:23;;;;;;;11.55;7.35;;;24.10;56.70;;;;;;5024440;28;20060;-62
2022/03/15 11:25:48;;;;;;;11.10;7.17;;;24.70;54.90;;;;;;5029414;28;20376;-63
2022/03/15 11:28:53;;;;;;;14.30;6.88;;;25.70;55.40;;;;;;5026550;28;20044;-63
2022/03/15 11:31:58;;;;;;;15.23;7.53;;;23.60;53.90;;;;;;5024638;28;20037;-62
2022/03/15 11:35:10;;;;;;;12.15;6.70;;;27.10;55.20;;;;;;5027079;28;20048;-62
2022/03/15 11:38:14;;;;;;;8.40;5.90;;;27.60;52.70;;;;;;5024675;28;20040;-62
2022/03/15 11:41:21;;;;;;;10.55;6.50;;;27.50;51.20;;;;;;5027507;28;20052;-63
2022/03/15 11:44:53;;;;;;;12.68;6.28;;;26.60;52.00;;;;;;5026730;28;20045;-62
2022/03/15 11:48:01;;;;;;;9.98;6.97;;;25.10;54.50;;;;;;5021977;28;20131;-62
2022/03/15 11:51:20;;;;;;;11.20;6.43;;;24.90;55.20;;;;;;5023372;28;20052;-61
2022/03/15 11:55:02;;;;;;;12.30;6.63;;;23.60;55.70;;;;;;5028082;28;20037;-62
2022/03/15 11:58:09;;;;;;;10.63;5.93;;;24.10;55.50;;;;;;5027338;28;20048;-62
2022/03/15 12:01:13;;;;;;;9.90;6.60;;;25.60;53.90;;;;;;5025319;28;20072;-61
2022/03/15 12:04:28;;;;;;;10.70;6.72;;;24.60;53.40;;;;;;5026144;28;20045;-61
2022/03/15 12:07:46;;;;;;;7.80;6.07;;;21.80;54.50;;;;;;5029657;28;20044;-61
2022/03/15 12:11:03;;;;;;;12.00;6.22;;;22.60;54.10;;;;;;5019706;28;20048;-61
2022/03/15 12:14:17;;;;;;;10.05;6.05;;;24.60;53.00;;;;;;5020408;28;20049;-61
2022/03/15 12:17:21;;;;;;;9.18;5.90;;;27.70;52.80;;;;;;5020781;28;20503;-62
2022/03/15 12:20:26;;;;;;;7.50;5.60;;;26.60;52.10;;;;;;5025680;28;20287;-62
2022/03/15 12:23:58;;;;;;;7.75;5.15;;;27.90;51.10;;;;;;5026390;28;20052;-62
2022/03/15 12:27:20;;;;;;;9.02;5.53;;;25.10;52.30;;;;;;5025933;28;20045;-61
2022/03/15 12:30:29;;;;;;;7.30;5.40;;;25.10;51.70;;;;;;5026656;28;20510;-62
2022/03/15 12:33:34;;;;;;;6.60;5.40;;;24.50;52.20;;;;;;5026202;28;20052;-62
2022/03/15 12:36:54;;;;;;;7.70;5.57;;;23.20;54.10;;;;;;5027388;28;20060;-62
2022/03/15 12:40:00;;;;;;;7.40;5.65;;;23.90;54.30;;;;;;5024582;28;20052;-60
2022/03/15 12:43:04;;;;;;;8.65;5.55;;;23.00;55.60;;;;;;5027525;28;20337;-61
2022/03/15 12:46:08;;;;;;;9.57;5.72;;;25.70;54.20;;;;;;5025635;28;20495;-62
2022/03/15 12:49:18;;;;;;;8.88;6.03;;;25.20;51.60;;;;;;5025294;28;20049;-62
2022/03/15 12:52:23;;;;;;;9.40;5.63;;;25.40;53.80;;;;;;5026353;28;20044;-61
2022/03/15 12:55:30;;;;;;;10.73;6.40;;;26.50;51.30;;;;;;5028015;28;20064;-62
2022/03/15 12:58:34;;;;;;;10.57;5.75;;;23.90;52.50;;;;;;5025973;28;20041;-61
2022/03/15 13:01:38;;;;;;;11.68;5.93;;;22.00;56.40;;;;;;5025231;28;20491;-62
2022/03/15 13:04:42;;;;;;;8.20;5.68;;;24.20;53.90;;;;;;5026005;28;21431;-61
2022/03/15 13:07:59;;;;;;;8.75;5.40;;;24.40;54.60;;;;;;5028272;28;20048;-62
2022/03/15 13:11:08;;;;;;;6.93;5.03;;;25.90;52.90;;;;;;5028340;28;20061;-62
2022/03/15 13:14:13;;;;;;;7.90;5.45;;;25.60;52.60;;;;;;5032188;28;20052;-62
2022/03/15 13:17:18;;;;;;;9.20;5.53;;;23.80;54.10;;;;;;5034185;28;20049;-62
2022/03/15 13:20:28;;;;;;;7.53;5.15;;;24.70;54.60;;;;;;5029943;28;20052;-62
2022/03/15 13:23:34;;;;;;;9.75;5.40;;;28.00;52.30;;;;;;5033308;28;20049;-62
2022/03/15 13:26:39;;;;;;;9.70;6.10;;;27.80;50.90;;;;;;5025997;28;20044;-62
2022/03/15 13:29:43;;;;;;;12.45;7.25;;;22.70;53.10;;;;;;5033010;28;20045;-62
2022/03/15 13:32:53;;;;;;;8.95;5.38;;;21.20;58.50;;;;;;5031693;28;20060;-61
2022/03/15 13:36:04;;;;;;;9.48;5.47;;;22.90;56.00;;;;;;5032757;28;20056;-61
2022/03/15 13:39:10;;;;;;;6.83;4.53;;;23.80;54.50;;;;;;5025801;28;20040;-62
2022/03/15 13:42:19;;;;;;;520.40;318.75;;;24.50;53.40;;;;;;5029265;28;20378;-62
2022/03/15 13:45:23;;;;;;;19.88;10.80;;;22.90;54.20;;;;;;5032448;28;20053;-61
2022/03/15 13:48:30;;;;;;;120.38;56.92;;;23.00;55.40;;;;;;5032159;28;20048;-62
2022/03/15 13:51:40;;;;;;;8.00;5.35;;;22.80;55.30;;;;;;5027741;28;20080;-62
2022/03/15 13:55:04;;;;;;;83.13;33.70;;;23.80;54.60;;;;;;5030278;28;20056;-62
2022/03/15 13:58:10;;;;;;;6.95;3.92;;;24.20;55.20;;;;;;5032159;28;20053;-61
2022/03/15 14:01:16;;;;;;;41.78;18.77;;;20.10;55.00;;;;;;5029844;28;20040;-61
2022/03/15 14:04:25;;;;;;;7.32;3.90;;;20.50;56.20;;;;;;5026999;28;20061;-61
2022/03/15 14:07:29;;;;;;;7.10;4.10;;;21.20;55.10;;;;;;5031030;28;20041;-62
2022/03/15 14:10:34;;;;;;;6.35;3.63;;;20.40;55.80;;;;;;5027226;28;20487;-61
2022/03/15 14:13:40;;;;;;;10.30;5.85;;;21.60;55.10;;;;;;5025843;28;20048;-61
2022/03/15 14:16:51;;;;;;;15.35;9.73;;;20.80;56.10;;;;;;5030112;28;20491;-61
2022/03/15 14:19:57;;;;;;;16.75;3.88;;;20.70;56.30;;;;;;5025952;28;20388;-62
2022/03/15 14:23:10;;;;;;;19.80;11.15;;;20.60;55.50;;;;;;5031755;28;20060;-61
2022/03/15 14:26:28;;;;;;;8.52;4.97;;;19.60;54.90;;;;;;5032091;28;20104;-62
2022/03/15 14:29:36;;;;;;;4.28;3.00;;;20.60;55.40;;;;;;5014637;28;20069;-62
2022/03/15 14:32:55;;;;;;;11.65;7.20;;;19.40;55.30;;;;;;5031888;28;20048;-62
2022/03/15 14:36:02;;;;;;;11.10;4.40;;;19.20;56.20;;;;;;5031799;28;20049;-62
2022/03/15 14:39:18;;;;;;;7.82;3.65;;;19.00;58.00;;;;;;5031910;28;20044;-61
2022/03/15 14:42:22;;;;;;;5.35;3.25;;;20.20;56.30;;;;;;5028819;28;20045;-61
2022/03/15 14:45:26;;;;;;;13.68;5.70;;;19.80;55.70;;;;;;5031802;28;20064;-61
2022/03/15 14:48:33;;;;;;;6.28;3.80;;;18.50;56.90;;;;;;5032092;28;20385;-61
2022/03/15 14:51:39;;;;;;;13.25;6.97;;;18.00;58.30;;;;;;5031473;28;20052;-60
2022/03/15 14:54:44;;;;;;;5.82;3.78;;;18.40;58.70;;;;;;5031174;28;20124;-61
2022/03/15 14:57:49;;;;;;;14.93;7.57;;;19.10;57.40;;;;;;5021244;28;20040;-60
2022/03/15 15:00:54;;;;;;;4.65;2.90;;;18.80;58.20;;;;;;5031187;28;20053;-61
2022/03/15 15:03:59;;;;;;;9.25;4.45;;;18.90;58.10;;;;;;5031425;28;20048;-61
2022/03/15 15:07:06;;;;;;;5.10;3.25;;;18.50;58.50;;;;;;5031125;28;20045;-61
2022/03/15 15:10:11;;;;;;;7.07;4.35;;;17.70;59.20;;;;;;5031604;28;20056;-61
2022/03/15 15:13:15;;;;;;;7.05;4.32;;;18.00;60.00;;;;;;5031300;28;20584;-61
2022/03/15 15:16:28;;;;;;;10.55;6.18;;;17.40;61.50;;;;;;5012528;28;20450;-61
2022/03/15 15:19:33;;;;;;;11.13;6.88;;;17.00;63.00;;;;;;5014339;28;20052;-61
2022/03/15 15:22:40;;;;;;;9.90;4.50;;;16.80;64.00;;;;;;5030885;28;20049;-61
2022/03/15 15:25:45;;;;;;;7.55;3.88;;;16.60;63.80;;;;;;5030232;28;20051;-61
2022/03/15 15:28:49;;;;;;;6.18;3.42;;;16.50;65.00;;;;;;5029752;28;20052;-61
2022/03/15 15:31:53;;;;;;;8.07;5.28;;;16.60;65.70;;;;;;5030550;28;20503;-62
2022/03/15 15:34:58;;;;;;;6.32;4.30;;;16.70;65.80;;;;;;5030289;28;20061;-62
2022/03/15 15:38:05;;;;;;;9.80;4.32;;;16.40;65.10;;;;;;5030404;28;20053;-61
2022/03/15 15:41:11;;;;;;;12.68;6.40;;;16.30;66.30;;;;;;5029997;28;20554;-61
2022/03/15 15:44:15;;;;;;;6.10;3.88;;;16.20;66.80;;;;;;5030495;28;20401;-62
2022/03/15 15:47:24;;;;;;;6.88;3.92;;;16.00;67.60;;;;;;5030283;28;20044;-61
2022/03/15 15:50:31;;;;;;;9.13;4.85;;;15.90;67.80;;;;;;5029868;28;20044;-61
2022/03/15 15:53:35;;;;;;;7.05;4.50;;;15.90;68.20;;;;;;5030613;28;20045;-61
2022/03/15 15:56:46;;;;;;;7.38;4.47;;;15.90;68.80;;;;;;5030619;28;20052;-62